sensor_id;sensor_type;location;lat;lon;timestamp;temperature;humidity
47162;DHT22;32921;53.256;8.198;2023-05-24T00:00:16;6.30;99.90
47162;DHT22;32921;53.256;8.198;2023-05-24T00:02:42;6.30;99.90
47162;DHT22;32921;53.256;8.198;2023-05-24T00:05:10;6.20;99.90
47162;DHT22;32921;53.256;8.198;2023-05-24T00:07:36;6.20;99.90
47162;DHT22;32921;53.256;8.198;2023-05-24T00:10:03;6.30;99.90
47162;DHT22;32921;53.256;8.198;2023-05-24T00:12:29;6.30;99.90
47162;DHT22;32921;53.256;8.198;2023-05-24T00:14:55;6.50;99.90
47162;DHT22;32921;53.256;8.198;2023-05-24T00:17:20;6.50;99.90
47162;DHT22;32921;53.256;8.198;2023-05-24T00:19:46;6.60;99.90
47162;DHT22;32921;53.256;8.198;2023-05-24T00:22:12;6.60;99.90
47162;DHT22;32921;53.256;8.198;2023-05-24T00:24:38;6.60;99.90
47162;DHT22;32921;53.256;8.198;2023-05-24T00:27:04;6.70;99.90
47162;DHT22;32921;53.256;8.198;2023-05-24T00:29:30;6.70;99.90
47162;DHT22;32921;53.256;8.198;2023-05-24T00:31:56;6.70;99.90
47162;DHT22;32921;53.256;8.198;2023-05-24T00:34:21;6.80;99.90
47162;DHT22;32921;53.256;8.198;2023-05-24T00:36:47;6.80;99.90
47162;DHT22;32921;53.256;8.198;2023-05-24T00:39:12;6.80;99.90
47162;DHT22;32921;53.256;8.198;2023-05-24T00:41:38;6.70;99.90
47162;DHT22;32921;53.256;8.198;2023-05-24T00:44:03;6.80;99.90
47162;DHT22;32921;53.256;8.198;2023-05-24T00:46:31;6.80;99.90
47162;DHT22;32921;53.256;8.198;2023-05-24T00:48:57;6.80;99.90
47162;DHT22;32921;53.256;8.198;2023-05-24T00:51:23;6.80;99.90
47162;DHT22;32921;53.256;8.198;2023-05-24T00:53:51;6.80;99.90
47162;DHT22;32921;53.256;8.198;2023-05-24T00:56:18;6.70;99.90
47162;DHT22;32921;53.256;8.198;2023-05-24T00:58:44;6.60;99.90
47162;DHT22;32921;53.256;8.198;2023-05-24T01:01:10;6.60;99.90
47162;DHT22;32921;53.256;8.198;2023-05-24T01:03:36;6.70;99.90
47162;DHT22;32921;53.256;8.198;2023-05-24T01:06:03;6.70;99.90
47162;DHT22;32921;53.256;8.198;2023-05-24T01:12:04;6.80;99.90
47162;DHT22;32921;53.256;8.198;2023-05-24T01:17:00;6.90;99.90
47162;DHT22;32921;53.256;8.198;2023-05-24T01:25:11;7.10;99.90
47162;DHT22;32921;53.256;8.198;2023-05-24T01:27:42;7.10;99.90
47162;DHT22;32921;53.256;8.198;2023-05-24T01:30:08;7.20;99.90
47162;DHT22;32921;53.256;8.198;2023-05-24T01:32:34;7.20;99.90
47162;DHT22;32921;53.256;8.198;2023-05-24T01:34:59;7.20;99.90
47162;DHT22;32921;53.256;8.198;2023-05-24T01:37:25;7.20;99.90
47162;DHT22;32921;53.256;8.198;2023-05-24T01:39:51;7.20;99.90
47162;DHT22;32921;53.256;8.198;2023-05-24T01:47:56;7.10;99.90
47162;DHT22;32921;53.256;8.198;2023-05-24T01:50:27;7.20;99.90
47162;DHT22;32921;53.256;8.198;2023-05-24T01:52:54;7.10;99.90
47162;DHT22;32921;53.256;8.198;2023-05-24T01:55:23;7.20;99.90
47162;DHT22;32921;53.256;8.198;2023-05-24T01:57:52;7.20;99.90
47162;DHT22;32921;53.256;8.198;2023-05-24T02:00:20;7.20;99.90
47162;DHT22;32921;53.256;8.198;2023-05-24T02:02:47;7.20;99.90
47162;DHT22;32921;53.256;8.198;2023-05-24T02:05:12;7.30;99.90
47162;DHT22;32921;53.256;8.198;2023-05-24T02:07:38;7.30;99.90
47162;DHT22;32921;53.256;8.198;2023-05-24T02:10:06;7.20;99.90
47162;DHT22;32921;53.256;8.198;2023-05-24T02:12:31;7.30;99.90
47162;DHT22;32921;53.256;8.198;2023-05-24T02:14:57;7.30;99.90
47162;DHT22;32921;53.256;8.198;2023-05-24T02:17:22;7.30;99.90
47162;DHT22;32921;53.256;8.198;2023-05-24T02:19:51;7.30;99.90
47162;DHT22;32921;53.256;8.198;2023-05-24T02:22:16;7.30;99.90
47162;DHT22;32921;53.256;8.198;2023-05-24T02:24:42;7.20;99.90
47162;DHT22;32921;53.256;8.198;2023-05-24T02:27:07;7.30;99.90
47162;DHT22;32921;53.256;8.198;2023-05-24T02:29:33;7.30;99.90
47162;DHT22;32921;53.256;8.198;2023-05-24T02:31:59;7.30;99.90
47162;DHT22;32921;53.256;8.198;2023-05-24T02:34:24;7.30;99.90
47162;DHT22;32921;53.256;8.198;2023-05-24T02:36:50;7.30;99.90
47162;DHT22;32921;53.256;8.198;2023-05-24T02:39:18;7.40;99.90
47162;DHT22;32921;53.256;8.198;2023-05-24T02:41:44;7.40;99.90
47162;DHT22;32921;53.256;8.198;2023-05-24T02:44:09;7.50;99.90
47162;DHT22;32921;53.256;8.198;2023-05-24T02:46:36;7.50;99.90
47162;DHT22;32921;53.256;8.198;2023-05-24T02:49:01;7.50;99.90
47162;DHT22;32921;53.256;8.198;2023-05-24T02:51:27;7.50;99.90
47162;DHT22;32921;53.256;8.198;2023-05-24T02:53:52;7.40;99.90
47162;DHT22;32921;53.256;8.198;2023-05-24T02:56:18;7.50;99.90
47162;DHT22;32921;53.256;8.198;2023-05-24T02:58:43;7.50;99.90
47162;DHT22;32921;53.256;8.198;2023-05-24T03:01:10;7.60;99.90
47162;DHT22;32921;53.256;8.198;2023-05-24T03:03:39;7.60;99.90
47162;DHT22;32921;53.256;8.198;2023-05-24T03:06:05;7.60;99.90
47162;DHT22;32921;53.256;8.198;2023-05-24T03:08:34;7.70;99.90
47162;DHT22;32921;53.256;8.198;2023-05-24T03:11:01;7.70;99.90
47162;DHT22;32921;53.256;8.198;2023-05-24T03:13:27;7.70;99.90
47162;DHT22;32921;53.256;8.198;2023-05-24T03:15:53;7.60;99.90
47162;DHT22;32921;53.256;8.198;2023-05-24T03:18:18;7.60;99.90
47162;DHT22;32921;53.256;8.198;2023-05-24T03:20:44;7.70;99.90
47162;DHT22;32921;53.256;8.198;2023-05-24T03:23:09;7.70;99.90
47162;DHT22;32921;53.256;8.198;2023-05-24T03:25:36;7.80;99.90
47162;DHT22;32921;53.256;8.198;2023-05-24T03:28:01;7.90;99.90
47162;DHT22;32921;53.256;8.198;2023-05-24T03:30:27;7.90;99.90
47162;DHT22;32921;53.256;8.198;2023-05-24T03:32:53;7.90;99.90
47162;DHT22;32921;53.256;8.198;2023-05-24T03:35:19;7.80;99.90
47162;DHT22;32921;53.256;8.198;2023-05-24T03:37:45;7.70;99.90
47162;DHT22;32921;53.256;8.198;2023-05-24T03:40:11;7.60;99.90
47162;DHT22;32921;53.256;8.198;2023-05-24T03:42:37;7.60;99.90
47162;DHT22;32921;53.256;8.198;2023-05-24T03:45:03;7.50;99.90
47162;DHT22;32921;53.256;8.198;2023-05-24T03:47:29;7.60;99.90
47162;DHT22;32921;53.256;8.198;2023-05-24T03:49:55;7.60;99.90
47162;DHT22;32921;53.256;8.198;2023-05-24T03:52:21;7.60;99.90
47162;DHT22;32921;53.256;8.198;2023-05-24T03:54:46;7.70;99.90
47162;DHT22;32921;53.256;8.198;2023-05-24T03:57:13;7.70;99.90
47162;DHT22;32921;53.256;8.198;2023-05-24T03:59:39;7.70;99.90
47162;DHT22;32921;53.256;8.198;2023-05-24T04:02:05;7.80;99.90
47162;DHT22;32921;53.256;8.198;2023-05-24T04:04:31;7.80;99.90
47162;DHT22;32921;53.256;8.198;2023-05-24T04:06:56;7.70;99.90
47162;DHT22;32921;53.256;8.198;2023-05-24T04:09:22;7.70;99.90
47162;DHT22;32921;53.256;8.198;2023-05-24T04:11:48;7.80;99.90
47162;DHT22;32921;53.256;8.198;2023-05-24T04:14:14;7.90;99.90
47162;DHT22;32921;53.256;8.198;2023-05-24T04:16:40;8.00;99.90
47162;DHT22;32921;53.256;8.198;2023-05-24T04:19:06;8.10;99.90
47162;DHT22;32921;53.256;8.198;2023-05-24T04:21:33;8.20;99.90
47162;DHT22;32921;53.256;8.198;2023-05-24T04:23:59;8.40;99.90
47162;DHT22;32921;53.256;8.198;2023-05-24T04:26:26;8.50;99.90
47162;DHT22;32921;53.256;8.198;2023-05-24T04:28:52;8.60;99.90
47162;DHT22;32921;53.256;8.198;2023-05-24T04:31:18;8.80;99.90
47162;DHT22;32921;53.256;8.198;2023-05-24T04:33:44;8.90;99.90
47162;DHT22;32921;53.256;8.198;2023-05-24T04:36:10;8.90;99.90
47162;DHT22;32921;53.256;8.198;2023-05-24T04:38:36;9.00;99.90
47162;DHT22;32921;53.256;8.198;2023-05-24T04:41:03;9.10;99.90
47162;DHT22;32921;53.256;8.198;2023-05-24T04:43:30;9.00;99.90
47162;DHT22;32921;53.256;8.198;2023-05-24T04:45:56;9.10;99.90
47162;DHT22;32921;53.256;8.198;2023-05-24T04:48:22;9.00;99.90
47162;DHT22;32921;53.256;8.198;2023-05-24T04:50:53;9.10;99.90
47162;DHT22;32921;53.256;8.198;2023-05-24T04:53:20;9.10;99.90
47162;DHT22;32921;53.256;8.198;2023-05-24T04:55:46;9.20;99.90
47162;DHT22;32921;53.256;8.198;2023-05-24T04:58:12;9.20;99.90
47162;DHT22;32921;53.256;8.198;2023-05-24T05:00:38;9.30;99.90
47162;DHT22;32921;53.256;8.198;2023-05-24T05:03:04;9.40;99.90
47162;DHT22;32921;53.256;8.198;2023-05-24T05:05:29;9.40;99.90
47162;DHT22;32921;53.256;8.198;2023-05-24T05:07:55;9.40;99.90
47162;DHT22;32921;53.256;8.198;2023-05-24T05:10:21;9.40;99.90
47162;DHT22;32921;53.256;8.198;2023-05-24T05:12:47;9.60;99.90
47162;DHT22;32921;53.256;8.198;2023-05-24T05:15:13;9.60;99.90
47162;DHT22;32921;53.256;8.198;2023-05-24T05:17:39;9.60;99.90
47162;DHT22;32921;53.256;8.198;2023-05-24T05:20:05;9.60;99.90
47162;DHT22;32921;53.256;8.198;2023-05-24T05:22:31;9.60;99.90
47162;DHT22;32921;53.256;8.198;2023-05-24T05:24:57;9.70;99.90
47162;DHT22;32921;53.256;8.198;2023-05-24T05:27:22;9.80;99.90
47162;DHT22;32921;53.256;8.198;2023-05-24T05:29:48;10.00;99.90
47162;DHT22;32921;53.256;8.198;2023-05-24T05:32:14;10.10;99.90
47162;DHT22;32921;53.256;8.198;2023-05-24T05:34:39;10.30;99.90
47162;DHT22;32921;53.256;8.198;2023-05-24T05:37:06;10.20;99.90
47162;DHT22;32921;53.256;8.198;2023-05-24T05:39:31;10.20;99.90
47162;DHT22;32921;53.256;8.198;2023-05-24T05:41:57;10.20;99.90
47162;DHT22;32921;53.256;8.198;2023-05-24T05:44:23;10.20;99.90
47162;DHT22;32921;53.256;8.198;2023-05-24T05:46:48;10.20;99.90
47162;DHT22;32921;53.256;8.198;2023-05-24T05:49:14;10.30;99.90
47162;DHT22;32921;53.256;8.198;2023-05-24T05:51:43;10.30;99.90
47162;DHT22;32921;53.256;8.198;2023-05-24T05:54:09;10.40;99.90
47162;DHT22;32921;53.256;8.198;2023-05-24T05:56:39;10.30;99.90
47162;DHT22;32921;53.256;8.198;2023-05-24T05:59:10;10.30;99.90
47162;DHT22;32921;53.256;8.198;2023-05-24T06:01:36;10.40;99.90
47162;DHT22;32921;53.256;8.198;2023-05-24T06:04:01;10.40;99.90
47162;DHT22;32921;53.256;8.198;2023-05-24T06:06:27;10.50;99.90
47162;DHT22;32921;53.256;8.198;2023-05-24T06:08:53;10.60;99.90
47162;DHT22;32921;53.256;8.198;2023-05-24T06:11:18;10.60;99.90
47162;DHT22;32921;53.256;8.198;2023-05-24T06:13:44;10.70;99.90
47162;DHT22;32921;53.256;8.198;2023-05-24T06:16:09;10.60;99.90
47162;DHT22;32921;53.256;8.198;2023-05-24T06:18:35;10.70;99.90
47162;DHT22;32921;53.256;8.198;2023-05-24T06:21:01;10.80;99.90
47162;DHT22;32921;53.256;8.198;2023-05-24T06:23:27;10.90;99.90
47162;DHT22;32921;53.256;8.198;2023-05-24T06:25:52;10.90;99.90
47162;DHT22;32921;53.256;8.198;2023-05-24T06:28:18;11.00;99.90
47162;DHT22;32921;53.256;8.198;2023-05-24T06:30:43;10.90;99.90
47162;DHT22;32921;53.256;8.198;2023-05-24T06:33:09;10.90;99.90
47162;DHT22;32921;53.256;8.198;2023-05-24T06:35:35;11.00;99.90
47162;DHT22;32921;53.256;8.198;2023-05-24T06:38:00;11.00;99.90
47162;DHT22;32921;53.256;8.198;2023-05-24T06:40:26;11.00;99.90
47162;DHT22;32921;53.256;8.198;2023-05-24T06:42:51;11.00;99.90
47162;DHT22;32921;53.256;8.198;2023-05-24T06:45:17;11.00;99.90
47162;DHT22;32921;53.256;8.198;2023-05-24T06:47:42;11.00;99.90
47162;DHT22;32921;53.256;8.198;2023-05-24T06:50:08;11.00;99.90
47162;DHT22;32921;53.256;8.198;2023-05-24T06:52:34;11.10;99.90
47162;DHT22;32921;53.256;8.198;2023-05-24T06:54:59;11.10;99.90
47162;DHT22;32921;53.256;8.198;2023-05-24T06:57:25;11.30;99.90
47162;DHT22;32921;53.256;8.198;2023-05-24T06:59:51;11.40;99.90
47162;DHT22;32921;53.256;8.198;2023-05-24T07:02:17;11.50;99.90
47162;DHT22;32921;53.256;8.198;2023-05-24T07:04:42;11.60;99.90
47162;DHT22;32921;53.256;8.198;2023-05-24T07:07:08;11.70;99.90
47162;DHT22;32921;53.256;8.198;2023-05-24T07:09:37;11.80;99.90
47162;DHT22;32921;53.256;8.198;2023-05-24T07:12:03;11.80;99.90
47162;DHT22;32921;53.256;8.198;2023-05-24T07:14:29;11.50;99.90
47162;DHT22;32921;53.256;8.198;2023-05-24T07:16:55;11.50;99.90
47162;DHT22;32921;53.256;8.198;2023-05-24T07:19:22;11.60;99.90
47162;DHT22;32921;53.256;8.198;2023-05-24T07:21:51;11.70;99.90
47162;DHT22;32921;53.256;8.198;2023-05-24T07:24:17;11.60;99.90
47162;DHT22;32921;53.256;8.198;2023-05-24T07:26:43;11.70;99.90
47162;DHT22;32921;53.256;8.198;2023-05-24T07:29:09;11.90;99.90
47162;DHT22;32921;53.256;8.198;2023-05-24T07:31:34;12.20;99.90
47162;DHT22;32921;53.256;8.198;2023-05-24T07:34:01;12.60;99.90
47162;DHT22;32921;53.256;8.198;2023-05-24T07:36:26;12.80;99.90
47162;DHT22;32921;53.256;8.198;2023-05-24T07:38:56;13.00;99.90
47162;DHT22;32921;53.256;8.198;2023-05-24T07:41:25;13.10;99.90
47162;DHT22;32921;53.256;8.198;2023-05-24T07:43:51;13.10;99.90
47162;DHT22;32921;53.256;8.198;2023-05-24T07:46:17;13.00;99.90
47162;DHT22;32921;53.256;8.198;2023-05-24T07:48:42;13.10;99.30
47162;DHT22;32921;53.256;8.198;2023-05-24T07:51:08;13.10;99.80
47162;DHT22;32921;53.256;8.198;2023-05-24T07:53:35;13.10;99.20
47162;DHT22;32921;53.256;8.198;2023-05-24T07:56:02;13.10;98.90
47162;DHT22;32921;53.256;8.198;2023-05-24T07:58:27;12.70;99.30
47162;DHT22;32921;53.256;8.198;2023-05-24T08:00:53;12.60;99.90
47162;DHT22;32921;53.256;8.198;2023-05-24T08:03:19;12.60;99.90
47162;DHT22;32921;53.256;8.198;2023-05-24T08:05:45;12.70;99.90
47162;DHT22;32921;53.256;8.198;2023-05-24T08:08:10;13.00;99.90
47162;DHT22;32921;53.256;8.198;2023-05-24T08:10:36;13.10;99.10
47162;DHT22;32921;53.256;8.198;2023-05-24T08:13:02;13.10;98.70
47162;DHT22;32921;53.256;8.198;2023-05-24T08:15:27;13.10;98.50
47162;DHT22;32921;53.256;8.198;2023-05-24T08:17:53;12.90;98.60
47162;DHT22;32921;53.256;8.198;2023-05-24T08:20:19;12.80;98.90
47162;DHT22;32921;53.256;8.198;2023-05-24T08:22:45;13.00;98.80
47162;DHT22;32921;53.256;8.198;2023-05-24T08:25:12;13.40;98.50
47162;DHT22;32921;53.256;8.198;2023-05-24T08:27:38;13.70;98.00
47162;DHT22;32921;53.256;8.198;2023-05-24T08:30:05;13.80;96.30
47162;DHT22;32921;53.256;8.198;2023-05-24T08:32:31;13.80;96.00
47162;DHT22;32921;53.256;8.198;2023-05-24T08:34:57;13.50;95.70
47162;DHT22;32921;53.256;8.198;2023-05-24T08:37:23;13.20;96.20
47162;DHT22;32921;53.256;8.198;2023-05-24T08:39:48;13.10;96.70
47162;DHT22;32921;53.256;8.198;2023-05-24T08:42:15;13.30;97.10
47162;DHT22;32921;53.256;8.198;2023-05-24T08:44:46;13.50;95.60
47162;DHT22;32921;53.256;8.198;2023-05-24T08:47:13;13.60;95.20
47162;DHT22;32921;53.256;8.198;2023-05-24T08:49:40;13.90;94.50
47162;DHT22;32921;53.256;8.198;2023-05-24T08:52:06;14.10;93.70
47162;DHT22;32921;53.256;8.198;2023-05-24T08:54:35;14.20;93.90
47162;DHT22;32921;53.256;8.198;2023-05-24T08:57:01;14.30;93.40
47162;DHT22;32921;53.256;8.198;2023-05-24T08:59:27;14.20;93.10
47162;DHT22;32921;53.256;8.198;2023-05-24T09:01:53;14.00;93.10
47162;DHT22;32921;53.256;8.198;2023-05-24T09:04:23;13.90;94.00
47162;DHT22;32921;53.256;8.198;2023-05-24T09:06:51;13.60;94.60
47162;DHT22;32921;53.256;8.198;2023-05-24T09:09:17;13.70;94.60
47162;DHT22;32921;53.256;8.198;2023-05-24T09:11:46;13.70;94.90
47162;DHT22;32921;53.256;8.198;2023-05-24T09:14:14;13.70;95.00
47162;DHT22;32921;53.256;8.198;2023-05-24T09:16:40;13.80;94.80
47162;DHT22;32921;53.256;8.198;2023-05-24T09:19:06;14.10;93.70
47162;DHT22;32921;53.256;8.198;2023-05-24T09:21:32;14.40;93.80
47162;DHT22;32921;53.256;8.198;2023-05-24T09:23:58;14.80;93.00
47162;DHT22;32921;53.256;8.198;2023-05-24T09:26:26;15.10;92.60
47162;DHT22;32921;53.256;8.198;2023-05-24T09:28:56;15.00;90.90
47162;DHT22;32921;53.256;8.198;2023-05-24T09:31:35;14.70;91.10
47162;DHT22;32921;53.256;8.198;2023-05-24T09:34:02;14.40;91.80
47162;DHT22;32921;53.256;8.198;2023-05-24T09:36:28;14.70;92.00
47162;DHT22;32921;53.256;8.198;2023-05-24T09:39:05;14.90;91.30
47162;DHT22;32921;53.256;8.198;2023-05-24T09:41:33;15.00;90.90
47162;DHT22;32921;53.256;8.198;2023-05-24T09:43:59;15.30;88.60
47162;DHT22;32921;53.256;8.198;2023-05-24T09:46:25;15.40;87.10
47162;DHT22;32921;53.256;8.198;2023-05-24T09:49:00;15.60;86.50
47162;DHT22;32921;53.256;8.198;2023-05-24T09:51:28;15.60;85.50
47162;DHT22;32921;53.256;8.198;2023-05-24T09:54:00;15.60;85.00
47162;DHT22;32921;53.256;8.198;2023-05-24T09:56:26;15.70;85.20
47162;DHT22;32921;53.256;8.198;2023-05-24T09:58:51;15.80;84.40
47162;DHT22;32921;53.256;8.198;2023-05-24T10:01:21;15.90;84.10
47162;DHT22;32921;53.256;8.198;2023-05-24T10:03:56;15.90;84.90
47162;DHT22;32921;53.256;8.198;2023-05-24T10:06:22;16.00;82.80
47162;DHT22;32921;53.256;8.198;2023-05-24T10:08:49;15.80;85.00
47162;DHT22;32921;53.256;8.198;2023-05-24T10:11:16;15.80;84.80
47162;DHT22;32921;53.256;8.198;2023-05-24T10:13:42;16.00;83.20
47162;DHT22;32921;53.256;8.198;2023-05-24T10:16:08;16.10;83.30
47162;DHT22;32921;53.256;8.198;2023-05-24T10:18:34;16.10;82.00
47162;DHT22;32921;53.256;8.198;2023-05-24T10:21:00;15.90;83.00
47162;DHT22;32921;53.256;8.198;2023-05-24T10:23:30;15.80;83.80
47162;DHT22;32921;53.256;8.198;2023-05-24T10:26:06;15.60;85.30
47162;DHT22;32921;53.256;8.198;2023-05-24T10:28:35;15.60;87.00
47162;DHT22;32921;53.256;8.198;2023-05-24T10:31:02;15.30;86.80
47162;DHT22;32921;53.256;8.198;2023-05-24T10:33:31;15.20;87.60
47162;DHT22;32921;53.256;8.198;2023-05-24T10:35:59;15.30;87.40
47162;DHT22;32921;53.256;8.198;2023-05-24T10:38:25;15.40;86.30
47162;DHT22;32921;53.256;8.198;2023-05-24T10:40:50;15.40;85.50
47162;DHT22;32921;53.256;8.198;2023-05-24T10:43:17;15.40;84.70
47162;DHT22;32921;53.256;8.198;2023-05-24T10:45:47;15.40;85.00
47162;DHT22;32921;53.256;8.198;2023-05-24T10:50:42;15.50;86.70
47162;DHT22;32921;53.256;8.198;2023-05-24T10:53:18;15.40;86.20
47162;DHT22;32921;53.256;8.198;2023-05-24T10:56:01;15.20;85.80
47162;DHT22;32921;53.256;8.198;2023-05-24T11:01:01;14.80;88.20
47162;DHT22;32921;53.256;8.198;2023-05-24T11:03:34;14.70;87.50
47162;DHT22;32921;53.256;8.198;2023-05-24T11:06:00;15.10;86.60
47162;DHT22;32921;53.256;8.198;2023-05-24T11:08:30;15.50;84.10
47162;DHT22;32921;53.256;8.198;2023-05-24T11:13:29;15.60;82.30
47162;DHT22;32921;53.256;8.198;2023-05-24T11:15:56;15.60;83.80
47162;DHT22;32921;53.256;8.198;2023-05-24T11:18:22;15.90;82.10
47162;DHT22;32921;53.256;8.198;2023-05-24T11:20:48;16.40;79.90
47162;DHT22;32921;53.256;8.198;2023-05-24T11:23:15;17.20;77.60
47162;DHT22;32921;53.256;8.198;2023-05-24T11:25:41;17.20;76.60
47162;DHT22;32921;53.256;8.198;2023-05-24T11:28:09;18.20;73.00
47162;DHT22;32921;53.256;8.198;2023-05-24T11:33:12;17.70;73.00
47162;DHT22;32921;53.256;8.198;2023-05-24T11:35:38;17.30;73.50
47162;DHT22;32921;53.256;8.198;2023-05-24T11:38:08;16.70;74.40
47162;DHT22;32921;53.256;8.198;2023-05-24T11:40:35;16.50;77.40
47162;DHT22;32921;53.256;8.198;2023-05-24T11:43:05;16.60;77.80
47162;DHT22;32921;53.256;8.198;2023-05-24T11:45:31;17.10;75.40
47162;DHT22;32921;53.256;8.198;2023-05-24T11:47:56;17.30;74.90
47162;DHT22;32921;53.256;8.198;2023-05-24T11:50:25;17.10;75.30
47162;DHT22;32921;53.256;8.198;2023-05-24T11:52:50;17.00;74.20
47162;DHT22;32921;53.256;8.198;2023-05-24T11:55:23;17.10;75.10
47162;DHT22;32921;53.256;8.198;2023-05-24T11:57:52;17.50;74.90
47162;DHT22;32921;53.256;8.198;2023-05-24T12:00:25;18.20;72.50
47162;DHT22;32921;53.256;8.198;2023-05-24T12:02:51;18.40;67.40
47162;DHT22;32921;53.256;8.198;2023-05-24T12:05:20;18.20;67.60
47162;DHT22;32921;53.256;8.198;2023-05-24T12:07:47;17.90;69.50
47162;DHT22;32921;53.256;8.198;2023-05-24T12:10:15;17.80;70.00
47162;DHT22;32921;53.256;8.198;2023-05-24T12:12:44;17.50;71.30
47162;DHT22;32921;53.256;8.198;2023-05-24T12:15:10;17.40;72.80
47162;DHT22;32921;53.256;8.198;2023-05-24T12:17:36;17.80;70.90
47162;DHT22;32921;53.256;8.198;2023-05-24T12:20:02;17.60;71.30
47162;DHT22;32921;53.256;8.198;2023-05-24T12:22:30;17.40;72.70
47162;DHT22;32921;53.256;8.198;2023-05-24T12:24:56;17.20;73.00
47162;DHT22;32921;53.256;8.198;2023-05-24T12:27:26;16.80;73.70
47162;DHT22;32921;53.256;8.198;2023-05-24T12:29:51;16.40;74.30
47162;DHT22;32921;53.256;8.198;2023-05-24T12:32:17;16.10;76.50
47162;DHT22;32921;53.256;8.198;2023-05-24T12:34:43;16.00;77.50
47162;DHT22;32921;53.256;8.198;2023-05-24T12:37:10;16.10;77.00
47162;DHT22;32921;53.256;8.198;2023-05-24T12:39:36;16.30;76.70
47162;DHT22;32921;53.256;8.198;2023-05-24T12:42:03;16.40;76.40
47162;DHT22;32921;53.256;8.198;2023-05-24T12:44:32;16.40;76.40
47162;DHT22;32921;53.256;8.198;2023-05-24T12:46:58;16.70;75.50
47162;DHT22;32921;53.256;8.198;2023-05-24T12:49:24;17.30;75.80
47162;DHT22;32921;53.256;8.198;2023-05-24T12:51:52;17.40;72.80
47162;DHT22;32921;53.256;8.198;2023-05-24T12:54:20;17.00;74.20
47162;DHT22;32921;53.256;8.198;2023-05-24T12:56:46;16.90;75.70
47162;DHT22;32921;53.256;8.198;2023-05-24T12:59:12;16.50;76.30
47162;DHT22;32921;53.256;8.198;2023-05-24T13:01:38;16.40;77.40
47162;DHT22;32921;53.256;8.198;2023-05-24T13:04:04;16.00;78.80
47162;DHT22;32921;53.256;8.198;2023-05-24T13:06:30;15.70;80.20
47162;DHT22;32921;53.256;8.198;2023-05-24T13:08:55;15.10;81.50
47162;DHT22;32921;53.256;8.198;2023-05-24T13:11:21;14.90;84.30
47162;DHT22;32921;53.256;8.198;2023-05-24T13:13:49;15.40;83.70
47162;DHT22;32921;53.256;8.198;2023-05-24T13:16:15;15.60;83.60
47162;DHT22;32921;53.256;8.198;2023-05-24T13:18:40;16.10;82.40
47162;DHT22;32921;53.256;8.198;2023-05-24T13:21:06;16.20;80.50
47162;DHT22;32921;53.256;8.198;2023-05-24T13:23:33;16.20;79.20
47162;DHT22;32921;53.256;8.198;2023-05-24T13:26:01;16.00;80.50
47162;DHT22;32921;53.256;8.198;2023-05-24T13:28:28;15.90;81.30
47162;DHT22;32921;53.256;8.198;2023-05-24T13:30:53;16.00;79.10
47162;DHT22;32921;53.256;8.198;2023-05-24T13:33:19;15.50;80.10
47162;DHT22;32921;53.256;8.198;2023-05-24T13:35:45;15.50;81.20
47162;DHT22;32921;53.256;8.198;2023-05-24T13:38:10;15.60;81.40
47162;DHT22;32921;53.256;8.198;2023-05-24T13:40:37;15.80;80.20
47162;DHT22;32921;53.256;8.198;2023-05-24T13:43:02;15.80;80.40
47162;DHT22;32921;53.256;8.198;2023-05-24T13:45:28;15.90;81.30
47162;DHT22;32921;53.256;8.198;2023-05-24T13:47:54;16.10;80.50
47162;DHT22;32921;53.256;8.198;2023-05-24T13:50:28;16.20;80.40
47162;DHT22;32921;53.256;8.198;2023-05-24T13:52:54;16.40;79.10
47162;DHT22;32921;53.256;8.198;2023-05-24T13:55:20;16.20;80.20
47162;DHT22;32921;53.256;8.198;2023-05-24T13:57:45;16.00;80.90
47162;DHT22;32921;53.256;8.198;2023-05-24T14:00:12;15.90;80.60
47162;DHT22;32921;53.256;8.198;2023-05-24T14:02:38;15.40;81.50
47162;DHT22;32921;53.256;8.198;2023-05-24T14:05:04;15.10;83.10
47162;DHT22;32921;53.256;8.198;2023-05-24T14:07:30;15.00;83.30
47162;DHT22;32921;53.256;8.198;2023-05-24T14:09:56;14.90;84.40
47162;DHT22;32921;53.256;8.198;2023-05-24T14:12:21;14.90;84.70
47162;DHT22;32921;53.256;8.198;2023-05-24T14:14:47;14.80;85.70
47162;DHT22;32921;53.256;8.198;2023-05-24T14:17:12;15.00;85.20
47162;DHT22;32921;53.256;8.198;2023-05-24T14:19:38;15.00;85.30
47162;DHT22;32921;53.256;8.198;2023-05-24T14:22:03;14.90;84.90
47162;DHT22;32921;53.256;8.198;2023-05-24T14:24:29;14.80;85.20
47162;DHT22;32921;53.256;8.198;2023-05-24T14:26:55;14.50;86.50
47162;DHT22;32921;53.256;8.198;2023-05-24T14:29:20;14.20;88.50
47162;DHT22;32921;53.256;8.198;2023-05-24T14:31:46;14.00;89.80
47162;DHT22;32921;53.256;8.198;2023-05-24T14:34:11;14.00;90.50
47162;DHT22;32921;53.256;8.198;2023-05-24T14:36:37;14.00;90.50
47162;DHT22;32921;53.256;8.198;2023-05-24T14:39:04;14.20;91.00
47162;DHT22;32921;53.256;8.198;2023-05-24T14:41:31;14.40;90.00
47162;DHT22;32921;53.256;8.198;2023-05-24T14:43:57;14.40;89.50
47162;DHT22;32921;53.256;8.198;2023-05-24T14:46:22;14.40;88.70
47162;DHT22;32921;53.256;8.198;2023-05-24T14:48:48;14.40;89.40
47162;DHT22;32921;53.256;8.198;2023-05-24T14:51:14;14.50;90.10
47162;DHT22;32921;53.256;8.198;2023-05-24T14:53:39;14.80;86.60
47162;DHT22;32921;53.256;8.198;2023-05-24T14:56:05;14.80;85.50
47162;DHT22;32921;53.256;8.198;2023-05-24T14:58:33;14.90;85.80
47162;DHT22;32921;53.256;8.198;2023-05-24T15:00:58;15.30;84.90
47162;DHT22;32921;53.256;8.198;2023-05-24T15:03:24;15.30;83.50
47162;DHT22;32921;53.256;8.198;2023-05-24T15:05:50;15.30;82.60
47162;DHT22;32921;53.256;8.198;2023-05-24T15:08:16;15.00;83.60
47162;DHT22;32921;53.256;8.198;2023-05-24T15:10:42;15.00;84.40
47162;DHT22;32921;53.256;8.198;2023-05-24T15:13:09;15.10;84.70
47162;DHT22;32921;53.256;8.198;2023-05-24T15:15:34;15.20;84.30
47162;DHT22;32921;53.256;8.198;2023-05-24T15:18:00;15.10;84.60
47162;DHT22;32921;53.256;8.198;2023-05-24T15:20:26;14.80;85.10
47162;DHT22;32921;53.256;8.198;2023-05-24T15:22:52;14.70;85.00
47162;DHT22;32921;53.256;8.198;2023-05-24T15:25:17;14.60;84.20
47162;DHT22;32921;53.256;8.198;2023-05-24T15:27:43;14.70;85.40
47162;DHT22;32921;53.256;8.198;2023-05-24T15:30:08;14.70;84.30
47162;DHT22;32921;53.256;8.198;2023-05-24T15:32:34;14.70;84.10
47162;DHT22;32921;53.256;8.198;2023-05-24T15:35:00;14.70;84.60
47162;DHT22;32921;53.256;8.198;2023-05-24T15:37:26;14.80;84.80
47162;DHT22;32921;53.256;8.198;2023-05-24T15:39:51;14.90;84.20
47162;DHT22;32921;53.256;8.198;2023-05-24T15:42:17;14.80;84.30
47162;DHT22;32921;53.256;8.198;2023-05-24T15:44:44;14.70;84.20
47162;DHT22;32921;53.256;8.198;2023-05-24T15:47:10;14.80;84.80
47162;DHT22;32921;53.256;8.198;2023-05-24T15:49:36;14.90;85.20
47162;DHT22;32921;53.256;8.198;2023-05-24T15:52:01;15.00;85.60
47162;DHT22;32921;53.256;8.198;2023-05-24T15:54:27;15.10;84.30
47162;DHT22;32921;53.256;8.198;2023-05-24T15:56:52;15.30;82.60